Time;durP1;ratioP1;P1;durP2;ratioP2;P2;SDS_P1;SDS_P2;PMS_P1;PMS_P2;Temp;Humidity;BMP_temperature;BMP_pressure;BME280_temperature;BME280_humidity;BME280_pressure;Samples;Min_cycle;Max_cycle;Signal;HPM_P1;HPM_P2
2021/07/11 00:00:06;;;;;;;;;;;;;;;18.90;85.70;100456.70;1704034;82;20197;-77
2021/07/11 00:02:33;;;;;;;;;;;;;;;18.85;86.12;100460.51;1700097;82;20176;-85
2021/07/11 00:05:00;;;;;;;;;;;;;;;18.83;86.29;100457.16;1700038;82;20262;-77
2021/07/11 00:07:29;;;;;;;;;;;;;;;18.78;86.53;100454.28;1678158;83;20243;-75
2021/07/11 00:09:55;;;;;;;;;;;;;;;18.77;86.79;100453.98;1707191;82;20145;-78
2021/07/11 00:12:20;;;;;;;;;;;;;;;18.80;86.39;100452.25;1700409;82;20158;-75
2021/07/11 00:14:47;;;;;;;;;;;;;;;18.74;85.92;100449.86;1713231;82;20143;-82
2021/07/11 00:17:13;;;;;;;;;;;;;;;18.72;85.93;100448.40;1696095;83;20175;-75
2021/07/11 00:19:40;;;;;;;;;;;;;;;18.72;86.03;100451.08;1712165;82;20161;-77
2021/07/11 00:22:06;;;;;;;;;;;;;;;18.65;86.27;100456.42;1705396;82;21111;-75
2021/07/11 00:24:33;;;;;;;;;;;;;;;18.63;86.52;100457.95;1704002;82;20344;-75
2021/07/11 00:26:59;;;;;;;;;;;;;;;18.63;86.25;100459.30;1712933;82;20902;-83
2021/07/11 00:29:24;;;;;;;;;;;;;;;18.57;86.75;100465.45;1702089;82;21398;-76
2021/07/11 00:31:52;;;;;;;;;;;;;;;18.56;86.85;100469.66;1714835;82;20146;-77
2021/07/11 00:34:17;;;;;;;;;;;;;;;18.61;86.35;100465.37;1705157;82;21143;-75
2021/07/11 00:36:45;;;;;;;;;;;;;;;18.60;86.55;100465.05;1714524;82;20197;-78
2021/07/11 00:39:10;;;;;;;;;;;;;;;18.57;86.54;100464.11;1703759;82;20230;-79
2021/07/11 00:41:40;;;;;;;;;;;;;;;18.56;86.69;100461.11;1697829;83;20292;-82
2021/07/11 00:44:06;;;;;;;;;;;;;;;18.55;86.54;100469.34;1699076;82;20164;-79
2021/07/11 00:46:33;;;;;;;;;;;;;;;18.52;86.61;100462.56;1698424;82;21225;-80
2021/07/11 00:49:01;;;;;;;;;;;;;;;18.51;86.66;100465.44;1705303;82;20554;-77
2021/07/11 00:51:26;;;;;;;;;;;;;;;18.54;86.54;100467.19;1706818;82;20135;-82
2021/07/11 00:53:54;;;;;;;;;;;;;;;18.52;86.80;100465.23;1715169;82;20130;-77
2021/07/11 00:56:19;;;;;;;;;;;;;;;18.49;87.24;100468.31;1699717;82;20154;-76
2021/07/11 00:58:45;;;;;;;;;;;;;;;18.45;87.48;100461.18;1703372;82;21151;-76
2021/07/11 01:01:14;;;;;;;;;;;;;;;18.42;87.83;100468.79;1728320;82;20233;-75
2021/07/11 01:03:40;;;;;;;;;;;;;;;18.44;87.90;100470.73;1695316;82;20436;-75
2021/07/11 01:06:05;;;;;;;;;;;;;;;18.39;88.13;100473.20;1716070;82;20120;-79
2021/07/11 01:08:35;;;;;;;;;;;;;;;18.38;87.92;100466.19;1703615;82;20468;-78
2021/07/11 01:11:02;;;;;;;;;;;;;;;18.40;87.76;100476.19;1706942;82;22890;-77
2021/07/11 01:13:30;;;;;;;;;;;;;;;18.34;88.22;100476.99;1711724;82;20471;-84
2021/07/11 01:15:58;;;;;;;;;;;;;;;18.30;88.67;100480.06;1702788;82;20164;-77
2021/07/11 01:18:24;;;;;;;;;;;;;;;18.30;89.15;100480.06;1710197;82;20468;-77
2021/07/11 01:20:52;;;;;;;;;;;;;;;18.25;89.36;100481.15;1716181;82;20455;-78
2021/07/11 01:23:27;;;;;;;;;;;;;;;18.26;89.69;100482.81;1713408;82;21093;-82
2021/07/11 01:25:52;;;;;;;;;;;;;;;18.25;89.83;100473.12;1697597;82;20334;-80
2021/07/11 01:28:20;;;;;;;;;;;;;;;18.20;90.20;100475.58;1706297;82;20161;-78
2021/07/11 01:30:48;;;;;;;;;;;;;;;18.22;90.51;100474.86;1695312;82;20240;-85
2021/07/11 01:33:15;;;;;;;;;;;;;;;18.25;90.85;100485.16;1706422;82;20265;-78
2021/07/11 01:35:40;;;;;;;;;;;;;;;18.23;90.55;100483.20;1715731;82;21166;-80
2021/07/11 01:38:07;;;;;;;;;;;;;;;18.21;90.66;100486.59;1709698;82;20358;-78
2021/07/11 01:40:35;;;;;;;;;;;;;;;18.20;90.88;100488.95;1711296;82;20172;-87
2021/07/11 01:43:00;;;;;;;;;;;;;;;18.18;91.53;100491.00;1709089;82;20188;-79
2021/07/11 01:45:26;;;;;;;;;;;;;;;18.20;91.62;100493.48;1679590;82;20492;-79
2021/07/11 01:47:54;;;;;;;;;;;;;;;18.22;91.59;100486.08;1701873;82;21187;-78
2021/07/11 01:50:22;;;;;;;;;;;;;;;18.18;92.16;100482.98;1703606;82;20180;-77
2021/07/11 01:52:48;;;;;;;;;;;;;;;18.19;92.38;100477.93;1717613;82;20159;-81
2021/07/11 01:55:14;;;;;;;;;;;;;;;18.24;92.45;100482.69;1701642;82;20148;-77
2021/07/11 01:57:39;;;;;;;;;;;;;;;18.29;92.26;100482.41;1713165;82;20199;-77
2021/07/11 02:00:09;;;;;;;;;;;;;;;18.24;92.20;100487.54;1717370;82;21961;-78
2021/07/11 02:02:35;;;;;;;;;;;;;;;18.20;92.03;100479.59;1712204;82;20133;-77
2021/07/11 02:05:08;;;;;;;;;;;;;;;18.25;91.82;100485.16;1716950;82;21105;-79
2021/07/11 02:07:35;;;;;;;;;;;;;;;18.23;91.96;100483.73;1720339;82;20179;-78
2021/07/11 02:10:05;;;;;;;;;;;;;;;18.19;91.82;100480.61;1711801;82;20494;-77
2021/07/11 02:12:32;;;;;;;;;;;;;;;18.11;92.12;100476.77;1703007;82;20161;-77
2021/07/11 02:15:00;;;;;;;;;;;;;;;18.07;92.56;100480.84;1708630;82;20135;-80
2021/07/11 02:17:26;;;;;;;;;;;;;;;18.15;92.40;100483.38;1706111;82;20091;-79
2021/07/11 02:19:52;;;;;;;;;;;;;;;18.20;92.27;100486.27;1708374;82;20174;-80
2021/07/11 02:22:17;;;;;;;;;;;;;;;18.24;91.98;100486.69;1698890;83;20772;-85
2021/07/11 02:24:44;;;;;;;;;;;;;;;18.14;92.04;100481.72;1708455;82;21100;-82
2021/07/11 02:27:14;;;;;;;;;;;;;;;18.16;92.13;100480.19;1677743;83;20231;-77
2021/07/11 02:29:42;;;;;;;;;;;;;;;18.18;92.10;100477.64;1706028;82;20439;-77
2021/07/11 02:32:09;;;;;;;;;;;;;;;18.15;91.87;100475.36;1714083;82;20145;-85
2021/07/11 02:34:39;;;;;;;;;;;;;;;18.14;91.93;100479.56;1709204;82;20174;-81
2021/07/11 02:37:06;;;;;;;;;;;;;;;18.15;91.79;100478.52;1711667;82;20173;-77
2021/07/11 02:39:38;;;;;;;;;;;;;;;18.10;91.57;100473.28;1709833;82;20132;-77
2021/07/11 02:42:07;;;;;;;;;;;;;;;18.14;91.04;100479.05;1674185;82;20143;-77
2021/07/11 02:44:35;;;;;;;;;;;;;;;18.17;90.50;100483.18;1702472;82;20552;-77
2021/07/11 02:47:13;;;;;;;;;;;;;;;18.16;90.23;100479.66;1710947;82;20163;-75
2021/07/11 02:49:42;;;;;;;;;;;;;;;18.21;90.46;100484.41;1708492;82;21114;-78
2021/07/11 02:52:08;;;;;;;;;;;;;;;18.19;90.34;100483.80;1700247;82;20168;-77
2021/07/11 02:54:36;;;;;;;;;;;;;;;18.20;90.04;100484.94;1711869;82;20455;-76
2021/07/11 02:57:03;;;;;;;;;;;;;;;18.30;89.91;100484.07;1701346;82;20276;-76
2021/07/11 02:59:28;;;;;;;;;;;;;;;18.40;89.12;100485.55;1711682;82;20202;-78
2021/07/11 03:01:54;;;;;;;;;;;;;;;18.46;88.74;100476.21;1716880;82;21168;-77
2021/07/11 03:04:20;;;;;;;;;;;;;;;18.39;88.29;100487.91;1705315;82;20184;-78
2021/07/11 03:06:47;;;;;;;;;;;;;;;18.33;88.71;100495.38;1717313;82;20203;-80
2021/07/11 03:09:16;;;;;;;;;;;;;;;18.42;89.00;100484.83;1716172;82;20892;-77
2021/07/11 03:11:42;;;;;;;;;;;;;;;18.27;90.18;100486.30;1716272;83;20221;-77
2021/07/11 03:14:09;;;;;;;;;;;;;;;18.29;89.67;100483.75;1721170;82;21764;-82
2021/07/11 03:16:37;;;;;;;;;;;;;;;18.28;89.59;100489.30;1713232;82;20143;-80
2021/07/11 03:19:03;;;;;;;;;;;;;;;18.28;89.61;100491.45;1711771;82;20111;-81
2021/07/11 03:21:30;;;;;;;;;;;;;;;18.28;89.58;100488.77;1704438;82;20119;-83
2021/07/11 03:23:56;;;;;;;;;;;;;;;18.29;89.71;100491.77;1704950;82;20169;-79
2021/07/11 03:26:22;;;;;;;;;;;;;;;18.35;89.85;100501.34;1707306;82;21855;-80
2021/07/11 03:28:50;;;;;;;;;;;;;;;18.40;89.27;100499.73;1714734;82;20118;-78
2021/07/11 03:31:15;;;;;;;;;;;;;;;18.71;87.68;100493.59;1707036;82;20459;-78
2021/07/11 03:33:43;;;;;;;;;;;;;;;18.62;87.50;100496.42;1718785;82;20210;-78
2021/07/11 03:36:11;;;;;;;;;;;;;;;18.66;87.43;100500.88;1717934;82;20670;-81
2021/07/11 03:38:40;;;;;;;;;;;;;;;18.68;87.23;100498.00;1666222;83;23674;-79
2021/07/11 03:41:05;;;;;;;;;;;;;;;18.67;87.52;100489.13;1722083;82;20119;-79
2021/07/11 03:43:33;;;;;;;;;;;;;;;18.73;87.33;100497.69;1716140;82;20141;-78
2021/07/11 03:45:59;;;;;;;;;;;;;;;18.74;87.36;100499.88;1712678;82;20578;-82
2021/07/11 03:48:29;;;;;;;;;;;;;;;18.68;87.15;100503.35;1712651;82;20216;-79
2021/07/11 03:50:56;;;;;;;;;;;;;;;18.90;86.70;100500.86;1720393;82;21191;-87
2021/07/11 03:53:24;;;;;;;;;;;;;;;19.02;85.70;100507.79;1710971;82;20170;-77
2021/07/11 03:55:49;;;;;;;;;;;;;;;19.04;85.39;100504.91;1676639;83;20209;-86
2021/07/11 03:58:15;;;;;;;;;;;;;;;19.03;85.31;100504.59;1699428;82;20672;-78
2021/07/11 04:00:41;;;;;;;;;;;;;;;19.03;85.38;100500.57;1704471;83;20328;-77
2021/07/11 04:03:08;;;;;;;;;;;;;;;19.12;85.28;100503.38;1714556;82;21082;-81
2021/07/11 04:05:35;;;;;;;;;;;;;;;19.15;84.93;100508.31;1715458;82;20565;-77
2021/07/11 04:08:02;;;;;;;;;;;;;;;19.25;84.54;100510.58;1708520;82;20083;-82
2021/07/11 04:10:28;;;;;;;;;;;;;;;19.29;84.65;100504.62;1717108;82;20182;-79
2021/07/11 04:12:54;;;;;;;;;;;;;;;19.40;84.49;100501.84;1711989;82;20206;-86
2021/07/11 04:15:24;;;;;;;;;;;;;;;19.48;83.63;100500.81;1712959;82;21097;-84
2021/07/11 04:17:51;;;;;;;;;;;;;;;19.64;82.95;100496.39;1703543;83;20159;-77
2021/07/11 04:20:17;;;;;;;;;;;;;;;19.67;82.71;100497.31;1701314;82;20142;-79
2021/07/11 04:22:43;;;;;;;;;;;;;;;19.80;82.67;100498.36;1707593;82;20285;-80
2021/07/11 04:25:12;;;;;;;;;;;;;;;19.85;81.70;100489.17;1706830;82;20195;-78
2021/07/11 04:27:38;;;;;;;;;;;;;;;19.99;82.03;100496.14;1719987;82;21099;-80
2021/07/11 04:30:06;;;;;;;;;;;;;;;20.05;81.04;100492.62;1705248;82;20741;-79
2021/07/11 04:32:33;;;;;;;;;;;;;;;20.11;80.65;100486.95;1715854;82;20136;-79
2021/07/11 04:35:00;;;;;;;;;;;;;;;20.18;80.72;100494.96;1676521;82;20331;-82
2021/07/11 04:37:26;;;;;;;;;;;;;;;20.33;80.69;100494.72;1703950;82;20187;-79
2021/07/11 04:39:52;;;;;;;;;;;;;;;20.42;80.44;100494.25;1715416;82;21248;-77
2021/07/11 04:42:17;;;;;;;;;;;;;;;20.63;79.40;100495.83;1707683;82;20606;-80
2021/07/11 04:44:44;;;;;;;;;;;;;;;20.71;79.16;100490.76;1715230;83;20138;-87
2021/07/11 04:47:12;;;;;;;;;;;;;;;20.72;78.20;100498.28;1716935;82;21002;-78
2021/07/11 04:49:39;;;;;;;;;;;;;;;20.71;77.90;100508.20;1711141;82;20130;-78
2021/07/11 04:52:06;;;;;;;;;;;;;;;20.63;78.56;100511.08;1700873;82;21034;-79
2021/07/11 04:54:33;;;;;;;;;;;;;;;20.79;78.72;100505.27;1695792;83;20233;-77
2021/07/11 04:57:01;;;;;;;;;;;;;;;20.90;78.70;100505.63;1703579;82;20199;-78
2021/07/11 04:59:29;;;;;;;;;;;;;;;20.94;77.96;100510.34;1699848;82;20175;-78
2021/07/11 05:01:57;;;;;;;;;;;;;;;20.97;77.71;100510.42;1711183;82;20273;-86
2021/07/11 05:04:23;;;;;;;;;;;;;;;21.00;77.89;100509.98;1719622;82;20208;-78
2021/07/11 05:06:52;;;;;;;;;;;;;;;21.10;77.51;100514.38;1693188;83;20507;-86
2021/07/11 05:09:17;;;;;;;;;;;;;;;21.27;77.51;100511.14;1697970;82;20131;-78
2021/07/11 05:11:43;;;;;;;;;;;;;;;21.33;76.65;100507.58;1716926;82;20182;-78
2021/07/11 05:14:12;;;;;;;;;;;;;;;21.37;76.68;100509.33;1712175;82;20245;-83
2021/07/11 05:16:41;;;;;;;;;;;;;;;21.55;76.26;100500.02;1704341;82;21977;-79
2021/07/11 05:19:09;;;;;;;;;;;;;;;21.59;76.01;100506.58;1712095;82;20151;-78
2021/07/11 05:21:34;;;;;;;;;;;;;;;21.40;76.18;100511.05;1718299;82;20114;-78
2021/07/11 05:24:00;;;;;;;;;;;;;;;21.48;76.28;100505.39;1704167;82;20181;-78
2021/07/11 05:26:25;;;;;;;;;;;;;;;21.45;75.59;100508.52;1708284;82;20799;-78
2021/07/11 05:28:51;;;;;;;;;;;;;;;21.65;75.27;100516.98;1706471;82;21073;-76
2021/07/11 05:31:18;;;;;;;;;;;;;;;21.71;74.43;100506.69;1694865;82;20139;-81
2021/07/11 05:33:43;;;;;;;;;;;;;;;21.71;74.87;100504.00;1710262;82;20107;-80
2021/07/11 05:36:09;;;;;;;;;;;;;;;21.79;74.64;100514.45;1705064;82;20488;-78
2021/07/11 05:38:36;;;;;;;;;;;;;;;21.89;74.46;100509.91;1703868;82;20190;-88
2021/07/11 05:41:03;;;;;;;;;;;;;;;21.99;73.57;100513.45;1693408;83;20991;-79
2021/07/11 05:43:30;;;;;;;;;;;;;;;22.07;73.74;100510.45;1714235;82;20154;-79
2021/07/11 05:45:58;;;;;;;;;;;;;;;22.15;73.74;100508.81;1715945;82;20146;-83
2021/07/11 05:48:23;;;;;;;;;;;;;;;22.29;72.89;100507.33;1709815;82;20594;-81
2021/07/11 05:50:53;;;;;;;;;;;;;;;22.33;72.26;100509.91;1709631;82;20132;-80
2021/07/11 05:53:22;;;;;;;;;;;;;;;22.36;72.20;100504.08;1711008;82;21400;-78
2021/07/11 05:55:47;;;;;;;;;;;;;;;22.50;71.59;100506.89;1703215;82;20168;-86
2021/07/11 05:58:13;;;;;;;;;;;;;;;22.66;71.32;100502.74;1696049;82;20150;-85
2021/07/11 06:00:39;;;;;;;;;;;;;;;22.64;70.67;100508.05;1718678;82;20165;-81
2021/07/11 06:03:04;;;;;;;;;;;;;;;22.69;70.98;100506.86;1715494;82;20248;-79
2021/07/11 06:05:30;;;;;;;;;;;;;;;22.82;70.42;100496.42;1713714;82;21155;-79
2021/07/11 06:07:56;;;;;;;;;;;;;;;22.79;69.57;100505.77;1705354;82;20181;-84
2021/07/11 06:10:21;;;;;;;;;;;;;;;22.86;69.83;100499.78;1708615;82;20471;-79
2021/07/11 06:12:47;;;;;;;;;;;;;;;22.89;69.90;100499.31;1714224;82;20149;-84
2021/07/11 06:15:14;;;;;;;;;;;;;;;22.82;69.54;100493.73;1711454;83;20138;-80
2021/07/11 06:17:40;;;;;;;;;;;;;;;22.87;69.57;100494.70;1691465;82;21157;-83
2021/07/11 06:20:08;;;;;;;;;;;;;;;22.91;69.35;100491.83;1719604;82;20296;-83
2021/07/11 06:22:34;;;;;;;;;;;;;;;22.91;69.23;100483.74;1671954;82;20161;-80
2021/07/11 06:25:06;;;;;;;;;;;;;;;22.92;69.47;100488.09;1713060;82;20188;-85
2021/07/11 06:27:27;;;;;;;;;;;;;;;22.98;68.91;100488.21;1711478;82;20144;-81
2021/07/11 06:29:52;;;;;;;;;;;;;;;23.07;68.21;100485.48;1700420;82;20964;-80
2021/07/11 06:32:18;;;;;;;;;;;;;;;23.12;68.08;100485.13;1720824;82;20801;-82
2021/07/11 06:34:44;;;;;;;;;;;;;;;23.17;67.67;100480.93;1709193;82;20150;-80
2021/07/11 06:37:09;;;;;;;;;;;;;;;23.22;67.44;100480.51;1705878;82;20253;-79
2021/07/11 06:39:35;;;;;;;;;;;;;;;23.26;67.82;100484.39;1690339;82;20452;-80
2021/07/11 06:42:02;;;;;;;;;;;;;;;23.24;67.01;100481.13;1710563;82;21007;-81
2021/07/11 06:44:28;;;;;;;;;;;;;;;23.24;66.82;100486.51;1708094;82;20184;-83
2021/07/11 06:46:54;;;;;;;;;;;;;;;23.22;65.85;100479.70;1707374;82;20282;-77
2021/07/11 06:49:20;;;;;;;;;;;;;;;23.20;66.03;100479.93;1711520;82;20570;-85
2021/07/11 06:51:45;;;;;;;;;;;;;;;23.24;66.24;100478.42;1685268;82;20186;-78
2021/07/11 06:54:14;;;;;;;;;;;;;;;23.29;65.92;100482.58;1703304;82;21117;-79
2021/07/11 06:56:39;;;;;;;;;;;;;;;23.28;66.04;100483.63;1703402;82;20207;-81
2021/07/11 06:59:08;;;;;;;;;;;;;;;23.13;67.20;100483.25;1709718;82;20179;-80
2021/07/11 07:01:36;;;;;;;;;;;;;;;23.17;67.04;100482.28;1705875;83;20209;-82
2021/07/11 07:04:03;;;;;;;;;;;;;;;23.26;66.92;100485.73;1720990;82;20189;-83
2021/07/11 07:06:29;;;;;;;;;;;;;;;23.30;66.99;100486.93;1706432;82;20099;-84
2021/07/11 07:08:54;;;;;;;;;;;;;;;23.33;66.98;100480.23;1715599;82;20162;-82
2021/07/11 07:11:20;;;;;;;;;;;;;;;23.35;66.79;100477.30;1705844;82;20143;-82
2021/07/11 07:13:45;;;;;;;;;;;;;;;23.39;66.86;100485.23;1713829;82;20703;-78
2021/07/11 07:16:11;;;;;;;;;;;;;;;23.34;66.31;100483.73;1711967;82;20143;-80
2021/07/11 07:18:37;;;;;;;;;;;;;;;23.36;66.29;100477.07;1708548;82;21856;-79
2021/07/11 07:21:03;;;;;;;;;;;;;;;23.42;66.25;100473.98;1707170;82;20128;-78
2021/07/11 07:23:28;;;;;;;;;;;;;;;23.42;66.34;100472.63;1718938;82;20881;-82
2021/07/11 07:25:54;;;;;;;;;;;;;;;23.46;65.76;100464.36;1709000;82;20718;-81
2021/07/11 07:28:21;;;;;;;;;;;;;;;23.40;65.53;100466.63;1706247;82;20212;-82
2021/07/11 07:30:47;;;;;;;;;;;;;;;23.45;65.47;100470.82;1719955;82;21290;-80
2021/07/11 07:33:12;;;;;;;;;;;;;;;23.56;64.96;100468.64;1700925;82;21529;-78
2021/07/11 07:35:40;;;;;;;;;;;;;;;23.68;64.72;100474.55;1714099;82;20411;-79
2021/07/11 07:38:06;;;;;;;;;;;;;;;23.68;63.59;100475.91;1690691;83;20272;-76
2021/07/11 07:40:33;;;;;;;;;;;;;;;23.71;63.39;100475.43;1720736;82;20111;-83
2021/07/11 07:43:01;;;;;;;;;;;;;;;23.83;63.44;100478.94;1696407;83;21142;-80
2021/07/11 07:45:27;;;;;;;;;;;;;;;23.90;63.19;100479.68;1709821;82;20166;-85
2021/07/11 07:47:54;;;;;;;;;;;;;;;24.00;62.38;100481.27;1709887;82;20174;-78
2021/07/11 07:50:19;;;;;;;;;;;;;;;24.12;60.88;100484.45;1681433;83;20206;-77
2021/07/11 07:52:45;;;;;;;;;;;;;;;24.18;60.95;100481.62;1714681;82;20574;-77
2021/07/11 07:55:12;;;;;;;;;;;;;;;24.23;60.98;100478.20;1708041;82;21793;-83
2021/07/11 07:57:42;;;;;;;;;;;;;;;24.21;61.08;100491.13;1701459;82;20103;-79
2021/07/11 08:00:14;;;;;;;;;;;;;;;24.17;60.38;100484.55;1702331;82;20134;-80
2021/07/11 08:02:41;;;;;;;;;;;;;;;24.20;61.70;100489.47;1705575;82;21037;-80
2021/07/11 08:05:09;;;;;;;;;;;;;;;24.21;61.45;100485.73;1706424;82;20204;-80
2021/07/11 08:07:36;;;;;;;;;;;;;;;24.29;61.57;100488.05;1710553;82;21168;-78
2021/07/11 08:10:05;;;;;;;;;;;;;;;24.40;61.48;100484.20;1703086;82;20151;-77
2021/07/11 08:12:31;;;;;;;;;;;;;;;24.55;60.95;100488.56;1706930;82;20123;-77
2021/07/11 08:14:56;;;;;;;;;;;;;;;24.53;60.46;100487.45;1712702;83;20703;-81
2021/07/11 08:17:23;;;;;;;;;;;;;;;24.64;59.86;100485.80;1716308;82;20135;-80
2021/07/11 08:19:49;;;;;;;;;;;;;;;24.62;60.04;100485.20;1675621;83;21898;-81
2021/07/11 08:22:16;;;;;;;;;;;;;;;24.58;59.50;100482.70;1672896;83;21130;-79
2021/07/11 08:24:41;;;;;;;;;;;;;;;24.68;58.67;100484.23;1706109;82;20230;-80
2021/07/11 08:27:09;;;;;;;;;;;;;;;24.77;59.34;100489.27;1706490;82;20498;-77
2021/07/11 08:29:35;;;;;;;;;;;;;;;24.85;59.17;100477.52;1705599;82;20144;-79
2021/07/11 08:32:01;;;;;;;;;;;;;;;24.99;58.55;100488.84;1706204;82;21933;-83
2021/07/11 08:34:27;;;;;;;;;;;;;;;25.08;58.79;100481.16;1708658;82;20147;-80
2021/07/11 08:36:59;;;;;;;;;;;;;;;25.01;59.36;100482.64;1705031;82;20193;-83
2021/07/11 08:39:23;;;;;;;;;;;;;;;25.00;59.73;100482.38;1708710;82;20523;-85
2021/07/11 08:41:48;;;;;;;;;;;;;;;25.06;59.08;100474.65;1711888;82;20162;-80
2021/07/11 08:44:17;;;;;;;;;;;;;;;25.06;59.05;100482.75;1702547;83;21117;-83
2021/07/11 08:46:42;;;;;;;;;;;;;;;25.13;59.26;100475.02;1708364;82;20178;-78
2021/07/11 08:49:09;;;;;;;;;;;;;;;25.27;59.46;100479.84;1707566;82;20219;-82
2021/07/11 08:51:38;;;;;;;;;;;;;;;25.22;59.16;100473.01;1675219;82;20153;-83
2021/07/11 08:54:07;;;;;;;;;;;;;;;25.25;58.65;100482.52;1707664;82;20542;-85
2021/07/11 08:56:32;;;;;;;;;;;;;;;25.24;58.76;100476.81;1709146;82;21975;-82
2021/07/11 08:59:00;;;;;;;;;;;;;;;25.21;58.67;100477.30;1714292;82;20130;-81
2021/07/11 09:01:29;;;;;;;;;;;;;;;25.09;58.47;100472.81;1706366;82;20156;-82
2021/07/11 09:04:13;;;;;;;;;;;;;;;25.21;58.34;100469.20;1708632;82;20130;-83
2021/07/11 09:06:46;;;;;;;;;;;;;;;25.20;58.66;100467.04;1705303;82;20142;-80
2021/07/11 09:09:13;;;;;;;;;;;;;;;25.22;58.74;100460.03;1706881;82;22065;-83
2021/07/11 09:11:51;;;;;;;;;;;;;;;25.28;57.80;100461.76;1700319;83;20555;-89
2021/07/11 09:14:25;;;;;;;;;;;;;;;25.31;57.79;100461.30;1717364;82;20166;-90
2021/07/11 09:16:51;;;;;;;;;;;;;;;25.28;57.51;100461.76;1714183;82;20191;-84
2021/07/11 09:19:28;;;;;;;;;;;;;;;25.31;57.42;100468.56;1704563;82;20869;-86
2021/07/11 09:21:57;;;;;;;;;;;;;;;25.31;57.42;100459.94;1702749;82;20555;-85
2021/07/11 09:24:23;;;;;;;;;;;;;;;25.25;56.39;100451.44;1710353;82;20118;-81
2021/07/11 09:26:50;;;;;;;;;;;;;;;25.28;57.17;100448.23;1712606;82;20122;-86
2021/07/11 09:29:30;;;;;;;;;;;;;;;25.35;58.47;100460.26;1713090;82;20190;-84
2021/07/11 09:31:56;;;;;;;;;;;;;;;25.34;57.79;100451.34;1704297;82;20436;-80
2021/07/11 09:34:23;;;;;;;;;;;;;;;25.36;57.74;100452.45;1709965;83;21217;-81
2021/07/11 09:37:09;;;;;;;;;;;;;;;25.37;56.59;100444.09;1702598;82;20181;-79
2021/07/11 09:39:58;;;;;;;;;;;;;;;25.33;57.29;100447.53;1693973;82;20163;-81
2021/07/11 09:42:39;;;;;;;;;;;;;;;25.40;57.46;100447.64;1700304;82;20204;-79
2021/07/11 09:45:19;;;;;;;;;;;;;;;25.36;56.53;100443.79;1706507;82;20507;-79
2021/07/11 09:47:46;;;;;;;;;;;;;;;25.41;56.54;100450.62;1701595;82;21023;-79
2021/07/11 09:50:20;;;;;;;;;;;;;;;25.51;57.14;100446.42;1705092;83;20200;-79
2021/07/11 09:52:47;;;;;;;;;;;;;;;25.46;57.02;100446.36;1708459;82;20262;-77
2021/07/11 09:55:21;;;;;;;;;;;;;;;25.49;56.38;100451.27;1685895;82;20120;-79
2021/07/11 09:57:52;;;;;;;;;;;;;;;25.55;56.37;100448.93;1712079;82;20212;-79
2021/07/11 10:00:24;;;;;;;;;;;;;;;25.55;56.33;100447.58;1713414;82;21141;-78
2021/07/11 10:02:51;;;;;;;;;;;;;;;25.57;55.68;100443.56;1706372;82;20496;-86
2021/07/11 10:05:20;;;;;;;;;;;;;;;25.63;55.84;100445.80;1697477;82;20188;-83
2021/07/11 10:07:45;;;;;;;;;;;;;;;25.70;56.47;100447.80;1707434;82;20160;-90
2021/07/11 10:10:15;;;;;;;;;;;;;;;25.70;56.31;100445.09;1685277;83;20612;-83
2021/07/11 10:12:46;;;;;;;;;;;;;;;25.71;56.07;100441.30;1708604;82;39912;-84
2021/07/11 10:15:17;;;;;;;;;;;;;;;25.75;56.51;100446.50;1708336;82;20193;-81
2021/07/11 10:18:00;;;;;;;;;;;;;;;25.83;55.99;100451.20;1706020;82;20097;-79
2021/07/11 10:20:43;;;;;;;;;;;;;;;25.88;55.55;100443.95;1616283;86;20455;-83
2021/07/11 10:23:10;;;;;;;;;;;;;;;25.91;55.83;100446.16;1686920;82;20230;-81
2021/07/11 10:25:36;;;;;;;;;;;;;;;26.02;55.35;100441.73;1682984;83;21020;-87
2021/07/11 10:28:08;;;;;;;;;;;;;;;26.08;55.27;100439.91;1712002;82;20191;-83
2021/07/11 10:30:37;;;;;;;;;;;;;;;26.13;55.09;100440.80;1711018;82;20480;-81
2021/07/11 10:33:14;;;;;;;;;;;;;;;26.20;54.58;100435.73;1709985;82;20167;-82
2021/07/11 10:35:59;;;;;;;;;;;;;;;26.27;55.05;100445.81;1716097;82;20147;-81
2021/07/11 10:38:52;;;;;;;;;;;;;;;26.24;54.60;100439.55;1703759;82;21182;-78
2021/07/11 10:41:21;;;;;;;;;;;;;;;26.28;54.64;100436.63;1714438;82;20087;-77
2021/07/11 10:44:10;;;;;;;;;;;;;;;26.34;54.52;100438.31;1701465;82;20129;-80
2021/07/11 10:46:44;;;;;;;;;;;;;;;26.40;53.24;100435.95;1710381;82;20473;-85
2021/07/11 10:49:13;;;;;;;;;;;;;;;26.38;53.76;100434.01;1719209;83;20134;-81
2021/07/11 10:51:45;;;;;;;;;;;;;;;26.43;53.98;100432.73;1708992;82;21149;-81
2021/07/11 10:54:29;;;;;;;;;;;;;;;26.64;54.38;100431.57;1707054;83;20127;-82
2021/07/11 10:57:03;;;;;;;;;;;;;;;26.67;53.49;100436.51;1707415;82;20109;-83
2021/07/11 10:59:37;;;;;;;;;;;;;;;26.65;52.97;100434.05;1703178;83;20226;-79
2021/07/11 11:02:18;;;;;;;;;;;;;;;26.65;52.18;100434.05;1708255;82;20188;-82
2021/07/11 11:04:44;;;;;;;;;;;;;;;26.61;52.34;100426.66;1702268;82;21121;-79
2021/07/11 11:07:14;;;;;;;;;;;;;;;26.63;52.55;100427.22;1697363;82;20280;-81
2021/07/11 11:09:47;;;;;;;;;;;;;;;26.65;52.17;100427.80;1699984;82;20115;-80
2021/07/11 11:12:29;;;;;;;;;;;;;;;26.69;52.58;100420.29;1676610;83;20193;-82
2021/07/11 11:15:03;;;;;;;;;;;;;;;26.72;52.45;100416.23;1701892;82;20139;-82
2021/07/11 11:17:38;;;;;;;;;;;;;;;26.69;51.76;100418.09;1699821;82;20190;-86
2021/07/11 11:20:07;;;;;;;;;;;;;;;26.71;52.55;100415.97;1707771;82;20127;-78
2021/07/11 11:22:33;;;;;;;;;;;;;;;26.74;51.70;100410.03;1699406;82;20146;-81
2021/07/11 11:24:59;;;;;;;;;;;;;;;26.80;51.93;100414.42;1681374;83;20181;-78
2021/07/11 11:27:37;;;;;;;;;;;;;;;26.81;52.42;100409.81;1704643;82;20329;-80
2021/07/11 11:30:14;;;;;;;;;;;;;;;26.81;52.51;100405.20;1702753;82;22271;-78
2021/07/11 11:32:40;;;;;;;;;;;;;;;26.93;52.63;100407.75;1708948;82;20220;-78
2021/07/11 11:35:06;;;;;;;;;;;;;;;26.96;52.46;100413.20;1706958;82;20223;-80
2021/07/11 11:37:34;;;;;;;;;;;;;;;26.92;52.14;100413.42;1704223;82;20128;-86
2021/07/11 11:40:06;;;;;;;;;;;;;;;26.94;51.67;100409.91;1702650;82;20167;-81
2021/07/11 11:42:32;;;;;;;;;;;;;;;26.93;52.05;100403.69;1703994;82;20212;-87
2021/07/11 11:45:07;;;;;;;;;;;;;;;27.02;51.91;100404.84;1699935;82;20197;-84
2021/07/11 11:47:36;;;;;;;;;;;;;;;27.11;51.55;100399.73;1705180;82;20225;-83
2021/07/11 11:50:16;;;;;;;;;;;;;;;27.15;51.48;100402.21;1694375;82;20475;-82
2021/07/11 11:52:45;;;;;;;;;;;;;;;27.31;51.23;100411.80;1699123;82;20755;-85
2021/07/11 11:55:13;;;;;;;;;;;;;;;27.32;50.05;100408.05;1706812;82;20733;-83
2021/07/11 11:57:41;;;;;;;;;;;;;;;27.41;50.32;100407.84;1702762;82;20330;-82
2021/07/11 12:00:15;;;;;;;;;;;;;;;27.53;49.94;100404.38;1699366;82;20162;-83
2021/07/11 12:02:41;;;;;;;;;;;;;;;27.66;48.99;100398.20;1682836;83;20193;-82
2021/07/11 12:05:13;;;;;;;;;;;;;;;27.72;50.26;100389.81;1689175;83;20226;-87
2021/07/11 12:07:41;;;;;;;;;;;;;;;27.86;50.62;100394.22;1708878;82;21093;-90
2021/07/11 12:10:08;;;;;;;;;;;;;;;27.99;50.37;100397.00;1707065;83;20257;-85
2021/07/11 12:12:34;;;;;;;;;;;;;;;28.10;49.87;100392.42;1690071;82;20630;-86
2021/07/11 12:15:00;;;;;;;;;;;;;;;28.21;50.41;100387.28;1703236;82;20161;-81
2021/07/11 12:17:32;;;;;;;;;;;;;;;28.23;50.32;100382.41;1706952;82;20222;-82
2021/07/11 12:19:57;;;;;;;;;;;;;;;28.31;49.79;100386.50;1706486;82;22151;-85
2021/07/11 12:22:29;;;;;;;;;;;;;;;28.30;48.29;100385.67;1694897;82;20131;-85
2021/07/11 12:25:18;;;;;;;;;;;;;;;28.41;48.39;100378.91;1685557;83;20196;-86
2021/07/11 12:27:43;;;;;;;;;;;;;;;28.39;47.55;100381.09;1705493;82;20165;-81
2021/07/11 12:30:15;;;;;;;;;;;;;;;28.50;48.24;100384.63;1706126;82;20171;-84
2021/07/11 12:32:54;;;;;;;;;;;;;;;28.61;48.31;100378.95;1700863;82;21110;-82
2021/07/11 12:35:24;;;;;;;;;;;;;;;28.61;48.04;100373.52;1698604;82;20190;-81
2021/07/11 12:37:55;;;;;;;;;;;;;;;28.74;48.72;100371.34;1699403;82;20188;-83
2021/07/11 12:40:28;;;;;;;;;;;;;;;28.80;48.65;100367.53;1711277;83;20107;-87